sensor_id;sensor_type;location;lat;lon;timestamp;P1;durP1;ratioP1;P2;durP2;ratioP2
40669;SDS011;26355;45.528;9.234;2023-01-06T00:01:12;42.70;;;24.20;;
40669;SDS011;26355;45.528;9.234;2023-01-06T00:03:41;43.17;;;24.40;;
40669;SDS011;26355;45.528;9.234;2023-01-06T00:06:08;45.67;;;25.42;;
40669;SDS011;26355;45.528;9.234;2023-01-06T00:08:35;45.22;;;24.95;;
40669;SDS011;26355;45.528;9.234;2023-01-06T00:11:05;45.88;;;25.13;;
40669;SDS011;26355;45.528;9.234;2023-01-06T00:13:35;42.85;;;24.75;;
40669;SDS011;26355;45.528;9.234;2023-01-06T00:16:02;42.83;;;24.45;;
40669;SDS011;26355;45.528;9.234;2023-01-06T00:20:56;41.00;;;23.20;;
40669;SDS011;26355;45.528;9.234;2023-01-06T00:23:23;47.33;;;24.23;;
40669;SDS011;26355;45.528;9.234;2023-01-06T00:25:49;45.58;;;26.10;;
40669;SDS011;26355;45.528;9.234;2023-01-06T00:28:15;48.20;;;25.55;;
40669;SDS011;26355;45.528;9.234;2023-01-06T00:30:40;47.60;;;25.60;;
40669;SDS011;26355;45.528;9.234;2023-01-06T00:33:06;42.95;;;24.45;;
40669;SDS011;26355;45.528;9.234;2023-01-06T00:35:31;46.83;;;24.40;;
40669;SDS011;26355;45.528;9.234;2023-01-06T00:37:57;45.10;;;25.05;;
40669;SDS011;26355;45.528;9.234;2023-01-06T00:40:23;42.22;;;25.40;;
40669;SDS011;26355;45.528;9.234;2023-01-06T00:42:48;48.75;;;26.63;;
40669;SDS011;26355;45.528;9.234;2023-01-06T00:45:14;47.20;;;25.55;;
40669;SDS011;26355;45.528;9.234;2023-01-06T00:47:39;46.47;;;25.63;;
40669;SDS011;26355;45.528;9.234;2023-01-06T00:53:32;46.45;;;25.33;;
40669;SDS011;26355;45.528;9.234;2023-01-06T00:56:02;45.50;;;24.83;;
40669;SDS011;26355;45.528;9.234;2023-01-06T00:58:31;46.58;;;25.65;;
40669;SDS011;26355;45.528;9.234;2023-01-06T01:01:03;47.83;;;26.13;;
40669;SDS011;26355;45.528;9.234;2023-01-06T01:03:30;51.47;;;28.80;;
40669;SDS011;26355;45.528;9.234;2023-01-06T01:06:00;45.83;;;26.80;;
40669;SDS011;26355;45.528;9.234;2023-01-06T01:08:26;48.22;;;25.42;;
40669;SDS011;26355;45.528;9.234;2023-01-06T01:10:52;46.25;;;25.73;;
40669;SDS011;26355;45.528;9.234;2023-01-06T01:13:18;49.20;;;27.75;;
40669;SDS011;26355;45.528;9.234;2023-01-06T01:15:44;47.67;;;25.73;;
40669;SDS011;26355;45.528;9.234;2023-01-06T01:18:09;46.15;;;25.80;;
40669;SDS011;26355;45.528;9.234;2023-01-06T01:20:35;45.35;;;27.05;;
40669;SDS011;26355;45.528;9.234;2023-01-06T01:23:01;49.28;;;26.73;;
40669;SDS011;26355;45.528;9.234;2023-01-06T01:25:26;51.03;;;28.00;;
40669;SDS011;26355;45.528;9.234;2023-01-06T01:27:52;49.30;;;25.58;;
40669;SDS011;26355;45.528;9.234;2023-01-06T01:30:17;47.03;;;25.75;;
40669;SDS011;26355;45.528;9.234;2023-01-06T01:32:45;46.53;;;27.45;;
40669;SDS011;26355;45.528;9.234;2023-01-06T01:35:11;49.30;;;27.98;;
40669;SDS011;26355;45.528;9.234;2023-01-06T01:37:36;48.25;;;27.30;;
40669;SDS011;26355;45.528;9.234;2023-01-06T01:40:02;51.20;;;27.27;;
40669;SDS011;26355;45.528;9.234;2023-01-06T01:42:28;49.72;;;26.83;;
40669;SDS011;26355;45.528;9.234;2023-01-06T01:44:59;49.58;;;26.73;;
40669;SDS011;26355;45.528;9.234;2023-01-06T01:47:33;53.30;;;27.65;;
40669;SDS011;26355;45.528;9.234;2023-01-06T01:50:13;48.38;;;26.67;;
40669;SDS011;26355;45.528;9.234;2023-01-06T01:52:46;55.30;;;26.88;;
40669;SDS011;26355;45.528;9.234;2023-01-06T01:55:14;55.58;;;28.35;;
40669;SDS011;26355;45.528;9.234;2023-01-06T01:57:47;49.78;;;28.10;;
40669;SDS011;26355;45.528;9.234;2023-01-06T02:00:26;52.90;;;27.60;;
40669;SDS011;26355;45.528;9.234;2023-01-06T02:02:52;53.22;;;26.25;;
40669;SDS011;26355;45.528;9.234;2023-01-06T02:05:19;51.10;;;28.23;;
40669;SDS011;26355;45.528;9.234;2023-01-06T02:07:47;53.67;;;27.13;;
40669;SDS011;26355;45.528;9.234;2023-01-06T02:12:43;52.83;;;29.23;;
40669;SDS011;26355;45.528;9.234;2023-01-06T02:15:15;53.28;;;28.23;;
40669;SDS011;26355;45.528;9.234;2023-01-06T02:17:52;53.42;;;29.70;;
40669;SDS011;26355;45.528;9.234;2023-01-06T02:29:18;60.20;;;33.63;;
40669;SDS011;26355;45.528;9.234;2023-01-06T02:40:36;55.03;;;31.40;;
40669;SDS011;26355;45.528;9.234;2023-01-06T02:46:08;54.95;;;30.58;;
40669;SDS011;26355;45.528;9.234;2023-01-06T02:51:17;55.17;;;30.73;;
40669;SDS011;26355;45.528;9.234;2023-01-06T02:56:50;54.72;;;31.05;;
40669;SDS011;26355;45.528;9.234;2023-01-06T02:59:26;58.97;;;29.75;;
40669;SDS011;26355;45.528;9.234;2023-01-06T03:01:57;53.03;;;30.63;;
40669;SDS011;26355;45.528;9.234;2023-01-06T03:04:26;55.95;;;32.80;;
40669;SDS011;26355;45.528;9.234;2023-01-06T03:09:34;57.08;;;30.52;;
40669;SDS011;26355;45.528;9.234;2023-01-06T03:12:02;55.88;;;32.03;;
40669;SDS011;26355;45.528;9.234;2023-01-06T03:14:37;50.22;;;30.95;;
40669;SDS011;26355;45.528;9.234;2023-01-06T03:17:05;52.00;;;29.75;;
40669;SDS011;26355;45.528;9.234;2023-01-06T03:19:31;53.45;;;30.20;;
40669;SDS011;26355;45.528;9.234;2023-01-06T03:21:57;53.22;;;29.67;;
40669;SDS011;26355;45.528;9.234;2023-01-06T03:24:23;55.20;;;31.67;;
40669;SDS011;26355;45.528;9.234;2023-01-06T03:26:50;51.97;;;30.67;;
40669;SDS011;26355;45.528;9.234;2023-01-06T03:29:18;53.22;;;29.42;;
40669;SDS011;26355;45.528;9.234;2023-01-06T03:37:30;48.90;;;30.02;;
40669;SDS011;26355;45.528;9.234;2023-01-06T03:40:30;49.67;;;28.50;;
40669;SDS011;26355;45.528;9.234;2023-01-06T03:51:36;50.38;;;29.27;;
40669;SDS011;26355;45.528;9.234;2023-01-06T03:54:35;50.42;;;31.00;;
40669;SDS011;26355;45.528;9.234;2023-01-06T03:57:23;47.95;;;29.35;;
40669;SDS011;26355;45.528;9.234;2023-01-06T03:59:54;50.72;;;29.77;;
40669;SDS011;26355;45.528;9.234;2023-01-06T04:02:22;49.90;;;29.83;;
40669;SDS011;26355;45.528;9.234;2023-01-06T04:05:00;52.65;;;30.88;;
40669;SDS011;26355;45.528;9.234;2023-01-06T04:07:32;50.28;;;28.73;;
40669;SDS011;26355;45.528;9.234;2023-01-06T04:09:57;52.45;;;29.83;;
40669;SDS011;26355;45.528;9.234;2023-01-06T04:12:23;51.63;;;30.98;;
40669;SDS011;26355;45.528;9.234;2023-01-06T04:17:32;49.40;;;28.73;;
40669;SDS011;26355;45.528;9.234;2023-01-06T04:19:59;50.60;;;30.27;;
40669;SDS011;26355;45.528;9.234;2023-01-06T04:22:25;48.83;;;28.67;;
40669;SDS011;26355;45.528;9.234;2023-01-06T04:24:51;50.85;;;28.95;;
40669;SDS011;26355;45.528;9.234;2023-01-06T04:27:16;51.90;;;30.30;;
40669;SDS011;26355;45.528;9.234;2023-01-06T04:29:42;50.17;;;29.10;;
40669;SDS011;26355;45.528;9.234;2023-01-06T04:32:07;53.10;;;30.33;;
40669;SDS011;26355;45.528;9.234;2023-01-06T04:34:33;50.00;;;29.48;;
40669;SDS011;26355;45.528;9.234;2023-01-06T04:36:58;55.72;;;31.02;;
40669;SDS011;26355;45.528;9.234;2023-01-06T04:39:24;51.28;;;29.38;;
40669;SDS011;26355;45.528;9.234;2023-01-06T04:41:49;54.67;;;31.88;;
40669;SDS011;26355;45.528;9.234;2023-01-06T04:44:15;51.47;;;31.02;;
40669;SDS011;26355;45.528;9.234;2023-01-06T04:46:40;49.90;;;29.55;;
40669;SDS011;26355;45.528;9.234;2023-01-06T04:49:06;54.78;;;30.98;;
40669;SDS011;26355;45.528;9.234;2023-01-06T04:51:32;51.17;;;29.48;;
40669;SDS011;26355;45.528;9.234;2023-01-06T04:53:57;53.67;;;29.80;;
40669;SDS011;26355;45.528;9.234;2023-01-06T04:56:23;54.17;;;31.10;;
40669;SDS011;26355;45.528;9.234;2023-01-06T04:58:51;49.92;;;29.38;;
40669;SDS011;26355;45.528;9.234;2023-01-06T05:01:19;49.45;;;29.13;;
40669;SDS011;26355;45.528;9.234;2023-01-06T05:03:45;51.65;;;30.33;;
40669;SDS011;26355;45.528;9.234;2023-01-06T05:06:10;53.75;;;29.77;;
40669;SDS011;26355;45.528;9.234;2023-01-06T05:08:38;57.75;;;31.48;;
40669;SDS011;26355;45.528;9.234;2023-01-06T05:11:06;53.00;;;30.90;;
40669;SDS011;26355;45.528;9.234;2023-01-06T05:13:33;55.08;;;31.48;;
40669;SDS011;26355;45.528;9.234;2023-01-06T05:15:59;55.63;;;30.45;;
40669;SDS011;26355;45.528;9.234;2023-01-06T05:18:24;51.15;;;30.05;;
40669;SDS011;26355;45.528;9.234;2023-01-06T05:20:50;50.97;;;30.85;;
40669;SDS011;26355;45.528;9.234;2023-01-06T05:23:17;55.10;;;31.70;;
40669;SDS011;26355;45.528;9.234;2023-01-06T05:25:43;55.08;;;32.83;;
40669;SDS011;26355;45.528;9.234;2023-01-06T05:28:08;49.65;;;30.58;;
40669;SDS011;26355;45.528;9.234;2023-01-06T05:30:34;56.03;;;31.30;;
40669;SDS011;26355;45.528;9.234;2023-01-06T05:32:59;55.72;;;31.08;;
40669;SDS011;26355;45.528;9.234;2023-01-06T05:35:25;52.03;;;31.65;;
40669;SDS011;26355;45.528;9.234;2023-01-06T05:37:55;54.78;;;31.13;;
40669;SDS011;26355;45.528;9.234;2023-01-06T05:40:21;56.33;;;32.17;;
40669;SDS011;26355;45.528;9.234;2023-01-06T05:42:46;58.33;;;33.05;;
40669;SDS011;26355;45.528;9.234;2023-01-06T05:45:12;53.17;;;31.80;;
40669;SDS011;26355;45.528;9.234;2023-01-06T05:47:37;51.25;;;31.10;;
40669;SDS011;26355;45.528;9.234;2023-01-06T05:50:03;52.95;;;31.00;;
40669;SDS011;26355;45.528;9.234;2023-01-06T05:52:29;57.67;;;33.10;;
40669;SDS011;26355;45.528;9.234;2023-01-06T05:54:55;54.97;;;32.08;;
40669;SDS011;26355;45.528;9.234;2023-01-06T05:57:20;51.30;;;32.63;;
40669;SDS011;26355;45.528;9.234;2023-01-06T05:59:46;57.38;;;32.17;;
40669;SDS011;26355;45.528;9.234;2023-01-06T06:02:12;54.65;;;31.70;;
40669;SDS011;26355;45.528;9.234;2023-01-06T06:04:37;52.47;;;31.10;;
40669;SDS011;26355;45.528;9.234;2023-01-06T06:07:03;51.47;;;31.05;;
40669;SDS011;26355;45.528;9.234;2023-01-06T06:09:29;48.67;;;29.63;;
40669;SDS011;26355;45.528;9.234;2023-01-06T06:11:54;55.90;;;32.90;;
40669;SDS011;26355;45.528;9.234;2023-01-06T06:14:20;52.75;;;32.20;;
40669;SDS011;26355;45.528;9.234;2023-01-06T06:16:46;53.08;;;31.38;;
40669;SDS011;26355;45.528;9.234;2023-01-06T06:19:12;52.67;;;31.10;;
40669;SDS011;26355;45.528;9.234;2023-01-06T06:21:37;53.05;;;31.40;;
40669;SDS011;26355;45.528;9.234;2023-01-06T06:24:03;54.10;;;32.00;;
40669;SDS011;26355;45.528;9.234;2023-01-06T06:26:29;53.92;;;31.95;;
40669;SDS011;26355;45.528;9.234;2023-01-06T06:28:55;50.25;;;31.98;;
40669;SDS011;26355;45.528;9.234;2023-01-06T06:31:25;53.50;;;30.95;;
40669;SDS011;26355;45.528;9.234;2023-01-06T06:33:53;52.30;;;31.58;;
40669;SDS011;26355;45.528;9.234;2023-01-06T06:36:20;51.38;;;32.67;;
40669;SDS011;26355;45.528;9.234;2023-01-06T06:38:47;52.35;;;31.05;;
40669;SDS011;26355;45.528;9.234;2023-01-06T06:43:40;50.67;;;31.05;;
40669;SDS011;26355;45.528;9.234;2023-01-06T06:46:07;51.53;;;30.80;;
40669;SDS011;26355;45.528;9.234;2023-01-06T06:48:33;51.55;;;32.22;;
40669;SDS011;26355;45.528;9.234;2023-01-06T06:50:59;51.25;;;31.30;;
40669;SDS011;26355;45.528;9.234;2023-01-06T06:53:29;51.05;;;32.38;;
40669;SDS011;26355;45.528;9.234;2023-01-06T06:55:56;55.08;;;31.40;;
40669;SDS011;26355;45.528;9.234;2023-01-06T06:58:22;55.35;;;33.97;;
40669;SDS011;26355;45.528;9.234;2023-01-06T07:00:48;52.65;;;31.23;;
40669;SDS011;26355;45.528;9.234;2023-01-06T07:03:14;52.90;;;32.80;;
40669;SDS011;26355;45.528;9.234;2023-01-06T07:05:43;52.97;;;31.45;;
40669;SDS011;26355;45.528;9.234;2023-01-06T07:08:10;52.22;;;31.65;;
40669;SDS011;26355;45.528;9.234;2023-01-06T07:10:36;53.60;;;32.33;;
40669;SDS011;26355;45.528;9.234;2023-01-06T07:13:02;55.58;;;31.85;;
40669;SDS011;26355;45.528;9.234;2023-01-06T07:15:28;54.55;;;31.65;;
40669;SDS011;26355;45.528;9.234;2023-01-06T07:17:53;54.08;;;34.30;;
40669;SDS011;26355;45.528;9.234;2023-01-06T07:20:19;53.35;;;33.70;;
40669;SDS011;26355;45.528;9.234;2023-01-06T07:22:45;52.10;;;32.13;;
40669;SDS011;26355;45.528;9.234;2023-01-06T07:25:10;55.17;;;32.15;;
40669;SDS011;26355;45.528;9.234;2023-01-06T07:27:36;53.00;;;31.45;;
40669;SDS011;26355;45.528;9.234;2023-01-06T07:30:02;52.80;;;32.05;;
40669;SDS011;26355;45.528;9.234;2023-01-06T07:32:29;52.33;;;30.88;;
40669;SDS011;26355;45.528;9.234;2023-01-06T07:34:54;52.60;;;32.15;;
40669;SDS011;26355;45.528;9.234;2023-01-06T07:37:20;52.50;;;32.20;;
40669;SDS011;26355;45.528;9.234;2023-01-06T07:39:46;47.45;;;30.65;;
40669;SDS011;26355;45.528;9.234;2023-01-06T07:42:11;51.03;;;31.38;;
40669;SDS011;26355;45.528;9.234;2023-01-06T07:44:37;50.90;;;31.05;;
40669;SDS011;26355;45.528;9.234;2023-01-06T07:47:02;52.50;;;30.17;;
40669;SDS011;26355;45.528;9.234;2023-01-06T07:49:28;50.22;;;29.95;;
40669;SDS011;26355;45.528;9.234;2023-01-06T07:51:54;49.03;;;30.20;;
40669;SDS011;26355;45.528;9.234;2023-01-06T07:54:19;52.78;;;31.25;;
40669;SDS011;26355;45.528;9.234;2023-01-06T07:56:45;50.30;;;31.55;;
40669;SDS011;26355;45.528;9.234;2023-01-06T07:59:10;52.00;;;31.02;;
40669;SDS011;26355;45.528;9.234;2023-01-06T08:01:36;51.95;;;29.35;;
40669;SDS011;26355;45.528;9.234;2023-01-06T08:04:02;50.70;;;29.98;;
40669;SDS011;26355;45.528;9.234;2023-01-06T08:06:27;48.47;;;28.67;;
40669;SDS011;26355;45.528;9.234;2023-01-06T08:08:53;49.80;;;30.58;;
40669;SDS011;26355;45.528;9.234;2023-01-06T08:11:19;47.00;;;27.60;;
40669;SDS011;26355;45.528;9.234;2023-01-06T08:13:45;45.53;;;27.35;;
40669;SDS011;26355;45.528;9.234;2023-01-06T08:16:11;50.53;;;29.35;;
40669;SDS011;26355;45.528;9.234;2023-01-06T08:18:37;43.75;;;26.33;;
40669;SDS011;26355;45.528;9.234;2023-01-06T08:21:04;46.95;;;27.35;;
40669;SDS011;26355;45.528;9.234;2023-01-06T08:23:31;46.83;;;27.35;;
40669;SDS011;26355;45.528;9.234;2023-01-06T08:26:15;45.25;;;25.25;;
40669;SDS011;26355;45.528;9.234;2023-01-06T08:28:51;45.30;;;26.13;;
40669;SDS011;26355;45.528;9.234;2023-01-06T08:31:24;47.80;;;26.40;;
40669;SDS011;26355;45.528;9.234;2023-01-06T08:38:01;45.45;;;25.67;;
40669;SDS011;26355;45.528;9.234;2023-01-06T08:41:24;47.08;;;27.80;;
40669;SDS011;26355;45.528;9.234;2023-01-06T08:44:09;46.40;;;25.10;;
40669;SDS011;26355;45.528;9.234;2023-01-06T08:49:53;43.63;;;24.15;;
40669;SDS011;26355;45.528;9.234;2023-01-06T08:52:20;44.47;;;23.95;;
40669;SDS011;26355;45.528;9.234;2023-01-06T08:54:46;43.88;;;22.92;;
40669;SDS011;26355;45.528;9.234;2023-01-06T08:57:11;44.20;;;23.88;;
40669;SDS011;26355;45.528;9.234;2023-01-06T08:59:39;42.60;;;24.02;;
40669;SDS011;26355;45.528;9.234;2023-01-06T09:02:05;46.13;;;25.17;;
40669;SDS011;26355;45.528;9.234;2023-01-06T09:04:31;43.70;;;22.85;;
40669;SDS011;26355;45.528;9.234;2023-01-06T09:06:56;46.15;;;24.92;;
40669;SDS011;26355;45.528;9.234;2023-01-06T09:09:22;45.70;;;24.80;;
40669;SDS011;26355;45.528;9.234;2023-01-06T09:11:48;42.75;;;23.23;;
40669;SDS011;26355;45.528;9.234;2023-01-06T09:14:13;41.17;;;24.83;;
40669;SDS011;26355;45.528;9.234;2023-01-06T09:16:39;43.60;;;25.50;;
40669;SDS011;26355;45.528;9.234;2023-01-06T09:19:05;44.45;;;24.08;;
40669;SDS011;26355;45.528;9.234;2023-01-06T09:21:31;42.60;;;24.63;;
40669;SDS011;26355;45.528;9.234;2023-01-06T09:23:56;43.15;;;24.00;;
40669;SDS011;26355;45.528;9.234;2023-01-06T09:26:22;44.72;;;23.77;;
40669;SDS011;26355;45.528;9.234;2023-01-06T09:28:48;47.67;;;26.63;;
40669;SDS011;26355;45.528;9.234;2023-01-06T09:31:13;43.75;;;24.02;;
40669;SDS011;26355;45.528;9.234;2023-01-06T09:33:39;45.78;;;23.52;;
40669;SDS011;26355;45.528;9.234;2023-01-06T09:36:05;45.28;;;24.48;;
40669;SDS011;26355;45.528;9.234;2023-01-06T09:38:31;45.22;;;24.23;;
40669;SDS011;26355;45.528;9.234;2023-01-06T09:43:52;44.28;;;23.73;;
40669;SDS011;26355;45.528;9.234;2023-01-06T09:46:29;42.60;;;24.13;;
40669;SDS011;26355;45.528;9.234;2023-01-06T09:49:06;40.67;;;24.35;;
40669;SDS011;26355;45.528;9.234;2023-01-06T09:51:55;44.30;;;22.92;;
40669;SDS011;26355;45.528;9.234;2023-01-06T09:54:36;42.75;;;22.98;;
40669;SDS011;26355;45.528;9.234;2023-01-06T09:57:14;42.50;;;25.38;;
40669;SDS011;26355;45.528;9.234;2023-01-06T09:59:50;43.60;;;25.23;;
40669;SDS011;26355;45.528;9.234;2023-01-06T10:02:28;43.42;;;23.58;;
40669;SDS011;26355;45.528;9.234;2023-01-06T10:05:11;41.60;;;21.52;;
40669;SDS011;26355;45.528;9.234;2023-01-06T10:07:43;41.10;;;21.30;;
40669;SDS011;26355;45.528;9.234;2023-01-06T10:18:06;39.78;;;21.25;;
40669;SDS011;26355;45.528;9.234;2023-01-06T10:20:53;35.70;;;18.83;;
40669;SDS011;26355;45.528;9.234;2023-01-06T10:26:30;39.88;;;20.73;;
40669;SDS011;26355;45.528;9.234;2023-01-06T10:29:18;40.30;;;21.75;;
40669;SDS011;26355;45.528;9.234;2023-01-06T10:32:04;37.20;;;20.70;;
40669;SDS011;26355;45.528;9.234;2023-01-06T10:34:47;40.08;;;21.52;;
40669;SDS011;26355;45.528;9.234;2023-01-06T10:37:24;42.28;;;21.95;;
40669;SDS011;26355;45.528;9.234;2023-01-06T10:43:00;35.70;;;19.77;;
40669;SDS011;26355;45.528;9.234;2023-01-06T10:45:42;39.85;;;22.67;;
40669;SDS011;26355;45.528;9.234;2023-01-06T10:48:32;36.78;;;19.52;;
40669;SDS011;26355;45.528;9.234;2023-01-06T10:54:09;39.45;;;20.77;;
40669;SDS011;26355;45.528;9.234;2023-01-06T10:56:39;37.80;;;21.17;;
40669;SDS011;26355;45.528;9.234;2023-01-06T10:59:09;38.80;;;21.50;;
40669;SDS011;26355;45.528;9.234;2023-01-06T11:01:46;37.67;;;21.40;;
40669;SDS011;26355;45.528;9.234;2023-01-06T11:04:13;41.03;;;21.23;;
40669;SDS011;26355;45.528;9.234;2023-01-06T11:06:42;40.22;;;22.23;;
40669;SDS011;26355;45.528;9.234;2023-01-06T11:11:54;40.25;;;22.00;;
40669;SDS011;26355;45.528;9.234;2023-01-06T11:14:29;45.47;;;23.45;;
40669;SDS011;26355;45.528;9.234;2023-01-06T11:17:00;43.15;;;23.92;;
40669;SDS011;26355;45.528;9.234;2023-01-06T11:19:32;41.13;;;22.75;;
40669;SDS011;26355;45.528;9.234;2023-01-06T11:22:30;43.22;;;24.02;;
40669;SDS011;26355;45.528;9.234;2023-01-06T11:24:57;40.92;;;22.60;;
40669;SDS011;26355;45.528;9.234;2023-01-06T11:27:23;40.72;;;21.85;;
40669;SDS011;26355;45.528;9.234;2023-01-06T11:29:49;40.03;;;22.48;;
40669;SDS011;26355;45.528;9.234;2023-01-06T11:34:51;42.75;;;24.38;;
40669;SDS011;26355;45.528;9.234;2023-01-06T11:39:58;43.85;;;24.00;;
40669;SDS011;26355;45.528;9.234;2023-01-06T11:42:25;42.75;;;24.65;;
40669;SDS011;26355;45.528;9.234;2023-01-06T11:44:51;44.85;;;25.15;;
40669;SDS011;26355;45.528;9.234;2023-01-06T11:47:21;43.35;;;25.13;;
40669;SDS011;26355;45.528;9.234;2023-01-06T11:49:59;43.75;;;23.90;;
40669;SDS011;26355;45.528;9.234;2023-01-06T11:52:26;40.42;;;23.35;;
40669;SDS011;26355;45.528;9.234;2023-01-06T11:54:59;42.42;;;23.52;;
40669;SDS011;26355;45.528;9.234;2023-01-06T11:57:41;39.67;;;23.67;;
40669;SDS011;26355;45.528;9.234;2023-01-06T12:11:28;40.65;;;22.92;;
40669;SDS011;26355;45.528;9.234;2023-01-06T12:13:56;41.75;;;23.38;;
40669;SDS011;26355;45.528;9.234;2023-01-06T12:16:34;43.35;;;23.30;;
40669;SDS011;26355;45.528;9.234;2023-01-06T12:19:03;43.15;;;22.25;;
40669;SDS011;26355;45.528;9.234;2023-01-06T12:21:49;44.00;;;23.38;;
40669;SDS011;26355;45.528;9.234;2023-01-06T12:24:15;44.97;;;22.75;;
40669;SDS011;26355;45.528;9.234;2023-01-06T12:26:44;42.10;;;23.35;;
40669;SDS011;26355;45.528;9.234;2023-01-06T12:29:11;44.60;;;24.45;;
40669;SDS011;26355;45.528;9.234;2023-01-06T12:31:59;47.03;;;24.73;;
40669;SDS011;26355;45.528;9.234;2023-01-06T12:34:39;45.53;;;25.40;;
40669;SDS011;26355;45.528;9.234;2023-01-06T12:42:45;42.85;;;23.38;;
40669;SDS011;26355;45.528;9.234;2023-01-06T12:45:27;41.90;;;23.92;;
40669;SDS011;26355;45.528;9.234;2023-01-06T12:48:22;43.42;;;25.17;;
40669;SDS011;26355;45.528;9.234;2023-01-06T12:54:51;45.50;;;24.88;;
40669;SDS011;26355;45.528;9.234;2023-01-06T13:06:03;45.20;;;24.77;;
40669;SDS011;26355;45.528;9.234;2023-01-06T13:08:39;49.65;;;26.83;;
40669;SDS011;26355;45.528;9.234;2023-01-06T13:14:04;47.05;;;23.88;;
40669;SDS011;26355;45.528;9.234;2023-01-06T13:16:50;47.28;;;25.90;;
40669;SDS011;26355;45.528;9.234;2023-01-06T13:22:15;44.03;;;24.55;;
40669;SDS011;26355;45.528;9.234;2023-01-06T13:30:12;43.67;;;25.65;;
40669;SDS011;26355;45.528;9.234;2023-01-06T13:35:19;45.25;;;24.85;;
40669;SDS011;26355;45.528;9.234;2023-01-06T13:43:40;42.58;;;22.73;;
40669;SDS011;26355;45.528;9.234;2023-01-06T13:47:00;46.85;;;24.38;;
40669;SDS011;26355;45.528;9.234;2023-01-06T13:50:12;41.20;;;23.58;;
40669;SDS011;26355;45.528;9.234;2023-01-06T13:52:40;43.92;;;24.55;;
40669;SDS011;26355;45.528;9.234;2023-01-06T13:57:53;46.83;;;25.25;;
40669;SDS011;26355;45.528;9.234;2023-01-06T14:00:19;53.80;;;25.10;;
40669;SDS011;26355;45.528;9.234;2023-01-06T14:07:49;46.47;;;24.50;;
40669;SDS011;26355;45.528;9.234;2023-01-06T14:10:32;48.42;;;25.70;;
40669;SDS011;26355;45.528;9.234;2023-01-06T14:13:16;44.78;;;25.60;;
40669;SDS011;26355;45.528;9.234;2023-01-06T14:16:01;47.70;;;25.10;;
40669;SDS011;26355;45.528;9.234;2023-01-06T14:21:26;43.13;;;24.80;;
40669;SDS011;26355;45.528;9.234;2023-01-06T14:23:54;45.65;;;24.83;;
40669;SDS011;26355;45.528;9.234;2023-01-06T14:26:59;40.85;;;24.10;;
40669;SDS011;26355;45.528;9.234;2023-01-06T14:30:01;46.75;;;25.20;;
40669;SDS011;26355;45.528;9.234;2023-01-06T14:32:08;40.97;;;24.02;;
40669;SDS011;26355;45.528;9.234;2023-01-06T14:35:19;45.30;;;24.90;;
40669;SDS011;26355;45.528;9.234;2023-01-06T14:38:57;44.58;;;23.98;;
40669;SDS011;26355;45.528;9.234;2023-01-06T14:44:56;43.65;;;23.48;;
40669;SDS011;26355;45.528;9.234;2023-01-06T14:48:37;43.67;;;23.40;;
40669;SDS011;26355;45.528;9.234;2023-01-06T15:01:27;42.58;;;24.33;;
40669;SDS011;26355;45.528;9.234;2023-01-06T15:21:57;42.90;;;23.15;;
40669;SDS011;26355;45.528;9.234;2023-01-06T15:24:59;40.25;;;21.33;;
40669;SDS011;26355;45.528;9.234;2023-01-06T15:27:53;39.67;;;22.15;;
40669;SDS011;26355;45.528;9.234;2023-01-06T15:30:32;42.35;;;23.65;;
40669;SDS011;26355;45.528;9.234;2023-01-06T15:33:08;45.35;;;23.55;;
40669;SDS011;26355;45.528;9.234;2023-01-06T15:38:44;41.50;;;21.98;;
40669;SDS011;26355;45.528;9.234;2023-01-06T15:41:16;45.03;;;22.17;;
40669;SDS011;26355;45.528;9.234;2023-01-06T15:44:25;43.97;;;21.97;;
40669;SDS011;26355;45.528;9.234;2023-01-06T15:47:26;41.03;;;21.77;;
40669;SDS011;26355;45.528;9.234;2023-01-06T15:49:59;37.53;;;20.48;;
40669;SDS011;26355;45.528;9.234;2023-01-06T15:52:38;42.40;;;22.13;;
40669;SDS011;26355;45.528;9.234;2023-01-06T15:55:26;40.85;;;22.10;;
40669;SDS011;26355;45.528;9.234;2023-01-06T15:57:55;40.10;;;22.50;;
40669;SDS011;26355;45.528;9.234;2023-01-06T16:00:48;47.33;;;23.65;;
40669;SDS011;26355;45.528;9.234;2023-01-06T16:03:27;42.03;;;24.17;;
40669;SDS011;26355;45.528;9.234;2023-01-06T16:06:05;39.13;;;21.23;;
40669;SDS011;26355;45.528;9.234;2023-01-06T16:08:35;38.15;;;20.45;;
40669;SDS011;26355;45.528;9.234;2023-01-06T16:14:25;43.55;;;22.95;;
40669;SDS011;26355;45.528;9.234;2023-01-06T16:19:30;40.65;;;21.63;;
40669;SDS011;26355;45.528;9.234;2023-01-06T16:21:57;41.92;;;23.58;;
40669;SDS011;26355;45.528;9.234;2023-01-06T16:24:27;40.40;;;21.30;;
40669;SDS011;26355;45.528;9.234;2023-01-06T16:26:55;44.45;;;23.00;;
40669;SDS011;26355;45.528;9.234;2023-01-06T16:31:55;40.13;;;22.05;;
40669;SDS011;26355;45.528;9.234;2023-01-06T16:36:55;37.22;;;22.50;;
40669;SDS011;26355;45.528;9.234;2023-01-06T16:39:22;39.63;;;21.67;;
40669;SDS011;26355;45.528;9.234;2023-01-06T16:44:25;43.83;;;21.55;;
40669;SDS011;26355;45.528;9.234;2023-01-06T16:46:53;39.83;;;22.75;;
40669;SDS011;26355;45.528;9.234;2023-01-06T16:49:19;42.10;;;23.50;;
40669;SDS011;26355;45.528;9.234;2023-01-06T16:51:46;40.40;;;23.55;;
40669;SDS011;26355;45.528;9.234;2023-01-06T16:54:15;41.30;;;23.20;;
40669;SDS011;26355;45.528;9.234;2023-01-06T16:59:12;43.67;;;23.13;;
40669;SDS011;26355;45.528;9.234;2023-01-06T17:01:42;46.20;;;23.70;;
40669;SDS011;26355;45.528;9.234;2023-01-06T17:04:12;43.30;;;23.58;;
40669;SDS011;26355;45.528;9.234;2023-01-06T17:06:39;41.90;;;23.27;;
40669;SDS011;26355;45.528;9.234;2023-01-06T17:09:18;42.30;;;23.25;;
40669;SDS011;26355;45.528;9.234;2023-01-06T17:11:45;41.53;;;24.05;;
40669;SDS011;26355;45.528;9.234;2023-01-06T17:14:12;44.38;;;24.98;;
40669;SDS011;26355;45.528;9.234;2023-01-06T17:16:40;47.83;;;24.17;;
40669;SDS011;26355;45.528;9.234;2023-01-06T17:21:53;43.88;;;23.63;;
40669;SDS011;26355;45.528;9.234;2023-01-06T17:24:28;42.13;;;23.60;;
40669;SDS011;26355;45.528;9.234;2023-01-06T17:26:59;46.00;;;24.50;;
40669;SDS011;26355;45.528;9.234;2023-01-06T17:29:45;43.60;;;23.98;;
40669;SDS011;26355;45.528;9.234;2023-01-06T17:32:45;42.35;;;23.00;;
40669;SDS011;26355;45.528;9.234;2023-01-06T17:37:59;43.55;;;22.92;;
40669;SDS011;26355;45.528;9.234;2023-01-06T17:40:36;45.33;;;25.65;;
40669;SDS011;26355;45.528;9.234;2023-01-06T17:43:04;44.63;;;25.33;;
40669;SDS011;26355;45.528;9.234;2023-01-06T17:45:38;42.47;;;24.85;;
40669;SDS011;26355;45.528;9.234;2023-01-06T17:48:07;48.30;;;24.45;;
40669;SDS011;26355;45.528;9.234;2023-01-06T17:50:35;43.30;;;23.73;;
40669;SDS011;26355;45.528;9.234;2023-01-06T17:53:10;42.47;;;25.42;;
40669;SDS011;26355;45.528;9.234;2023-01-06T17:55:57;41.25;;;23.10;;
40669;SDS011;26355;45.528;9.234;2023-01-06T17:58:26;44.88;;;25.25;;
40669;SDS011;26355;45.528;9.234;2023-01-06T18:00:54;42.83;;;24.40;;
40669;SDS011;26355;45.528;9.234;2023-01-06T18:05:51;48.55;;;25.17;;
40669;SDS011;26355;45.528;9.234;2023-01-06T18:08:18;46.63;;;24.77;;
40669;SDS011;26355;45.528;9.234;2023-01-06T18:10:49;44.55;;;24.70;;
40669;SDS011;26355;45.528;9.234;2023-01-06T18:13:18;51.78;;;25.45;;
40669;SDS011;26355;45.528;9.234;2023-01-06T18:15:44;42.10;;;24.05;;